Time;durP1;ratioP1;P1;durP2;ratioP2;P2;SDS_P1;SDS_P2;PMS_P1;PMS_P2;Temp;Humidity;BMP_temperature;BMP_pressure;BME280_temperature;BME280_humidity;BME280_pressure;Samples;Min_cycle;Max_cycle;Signal;HPM_P1;HPM_P2
2022/05/17 00:00:57;;;;;;;14.83;12.30;;;14.20;99.90;;;;;;5024956;28;20697;-78
2022/05/17 00:03:23;;;;;;;15.13;12.10;;;14.20;99.90;;;;;;5020789;28;20169;-79
2022/05/17 00:05:48;;;;;;;14.33;12.60;;;14.10;99.90;;;;;;5033582;28;20180;-79
2022/05/17 00:08:16;;;;;;;13.47;11.77;;;14.10;99.90;;;;;;5021636;28;20218;-79
2022/05/17 00:10:43;;;;;;;15.00;11.73;;;14.00;99.90;;;;;;5022432;28;20177;-79
2022/05/17 00:13:09;;;;;;;14.67;12.40;;;14.00;99.90;;;;;;5022810;28;20176;-79
2022/05/17 00:15:38;;;;;;;15.23;12.60;;;13.90;99.90;;;;;;5039422;28;20243;-79
2022/05/17 00:18:05;;;;;;;14.43;12.10;;;13.90;99.90;;;;;;5022517;28;20275;-79
2022/05/17 00:20:31;;;;;;;14.03;10.87;;;13.90;99.90;;;;;;5040870;28;20199;-80
2022/05/17 00:22:56;;;;;;;14.10;11.80;;;13.80;99.90;;;;;;5040407;28;20247;-80
2022/05/17 00:25:23;;;;;;;14.17;10.97;;;13.90;99.90;;;;;;5020893;28;20187;-79
2022/05/17 00:27:49;;;;;;;14.57;10.37;;;13.70;99.90;;;;;;5039757;28;20177;-79
2022/05/17 00:30:14;;;;;;;14.57;10.57;;;13.70;99.90;;;;;;5041023;28;20176;-79
2022/05/17 00:32:40;;;;;;;13.90;10.50;;;13.70;99.90;;;;;;5025295;28;20592;-79
2022/05/17 00:35:06;;;;;;;12.00;10.67;;;13.60;99.90;;;;;;5040373;28;20279;-79
2022/05/17 00:37:32;;;;;;;12.17;10.87;;;13.60;99.90;;;;;;5039141;28;20191;-79
2022/05/17 00:39:58;;;;;;;13.47;10.43;;;13.60;99.90;;;;;;5015434;28;20307;-79
2022/05/17 00:42:23;;;;;;;12.83;10.33;;;13.50;99.90;;;;;;5017131;28;20651;-80
2022/05/17 00:44:49;;;;;;;11.53;10.00;;;13.50;99.90;;;;;;5004778;28;20208;-79
2022/05/17 00:47:22;;;;;;;15.30;10.80;;;13.40;99.90;;;;;;5038701;28;20558;-78
2022/05/17 00:49:54;;;;;;;13.73;10.57;;;13.40;99.90;;;;;;5020110;28;20263;-78
2022/05/17 00:52:30;;;;;;;14.50;11.00;;;13.30;99.90;;;;;;5039749;28;20180;-78
2022/05/17 00:55:01;;;;;;;17.53;11.67;;;13.30;99.90;;;;;;5039551;28;20251;-77
2022/05/17 00:57:55;;;;;;;12.30;10.70;;;13.30;99.90;;;;;;5038918;28;20173;-79
2022/05/17 01:00:22;;;;;;;13.33;10.67;;;13.30;99.90;;;;;;5024727;28;20211;-78
2022/05/17 01:02:54;;;;;;;17.40;11.10;;;13.20;99.90;;;;;;5038447;28;20202;-78
2022/05/17 01:05:21;;;;;;;15.20;11.43;;;13.20;99.90;;;;;;5018949;28;20180;-78
2022/05/17 01:07:52;;;;;;;18.57;10.77;;;13.20;99.90;;;;;;5039550;28;20176;-78
2022/05/17 01:10:18;;;;;;;14.47;10.20;;;13.10;99.90;;;;;;5021282;28;20172;-79
2022/05/17 01:14:57;;;;;;;12.53;11.27;;;13.10;99.90;;;;;;5038294;28;20267;-78
2022/05/17 01:15:30;;;;;;;14.67;11.43;;;13.10;99.90;;;;;;5037585;28;20703;-79
2022/05/17 01:17:55;;;;;;;13.67;12.07;;;13.10;99.90;;;;;;5021191;28;20200;-79
2022/05/17 01:20:21;;;;;;;13.40;11.73;;;13.00;99.90;;;;;;5022905;28;20203;-79
2022/05/17 01:22:46;;;;;;;13.20;11.33;;;13.00;99.90;;;;;;5022623;28;20177;-78
2022/05/17 01:25:12;;;;;;;17.37;11.70;;;13.10;99.90;;;;;;5024323;28;20184;-79
2022/05/17 01:27:45;;;;;;;13.67;11.07;;;12.90;99.90;;;;;;5023848;28;20188;-78
2022/05/17 01:30:18;;;;;;;15.53;11.83;;;12.90;99.90;;;;;;5040442;28;20322;-79
2022/05/17 01:32:44;;;;;;;13.50;11.00;;;12.90;99.90;;;;;;5024689;28;20184;-78
2022/05/17 01:35:09;;;;;;;14.10;11.00;;;12.90;99.90;;;;;;5038404;28;20187;-79
2022/05/17 01:37:35;;;;;;;16.30;12.07;;;12.80;99.90;;;;;;5037805;28;20180;-79
2022/05/17 01:40:01;;;;;;;14.67;12.47;;;12.80;99.90;;;;;;5038424;28;20287;-78
2022/05/17 01:42:26;;;;;;;18.23;12.73;;;12.70;99.90;;;;;;5037709;28;20259;-78
2022/05/17 01:44:52;;;;;;;14.40;12.03;;;12.70;99.90;;;;;;5037387;28;20188;-78
2022/05/17 01:47:18;;;;;;;14.77;13.27;;;12.70;99.90;;;;;;5045673;28;20199;-78
2022/05/17 01:49:43;;;;;;;17.10;12.73;;;12.70;99.90;;;;;;5038623;28;20200;-78
2022/05/17 01:52:10;;;;;;;15.23;12.63;;;12.60;99.90;;;;;;5020090;28;20180;-79
2022/05/17 01:54:35;;;;;;;14.70;11.90;;;12.60;99.90;;;;;;5019320;28;20179;-80
2022/05/17 01:57:01;;;;;;;14.77;12.00;;;12.60;99.90;;;;;;5020219;28;20172;-79
2022/05/17 01:59:27;;;;;;;14.33;11.90;;;12.50;99.90;;;;;;5018555;28;20291;-79
2022/05/17 02:01:52;;;;;;;14.43;12.00;;;12.50;99.90;;;;;;5019827;28;20212;-78
2022/05/17 02:04:18;;;;;;;17.17;11.20;;;12.50;99.90;;;;;;5018901;28;20195;-80
2022/05/17 02:06:43;;;;;;;12.10;10.80;;;12.40;99.90;;;;;;5037862;28;20212;-78
2022/05/17 02:09:09;;;;;;;15.10;11.13;;;12.40;99.90;;;;;;5037925;28;20194;-79
2022/05/17 02:11:35;;;;;;;13.90;11.13;;;12.40;99.90;;;;;;5020726;28;20176;-78
2022/05/17 02:14:01;;;;;;;13.40;11.10;;;12.40;99.90;;;;;;5037459;28;20187;-78
2022/05/17 02:16:27;;;;;;;14.20;11.10;;;12.30;99.90;;;;;;5036731;28;20180;-79
2022/05/17 02:18:53;;;;;;;13.77;11.20;;;12.30;99.90;;;;;;5037696;28;20193;-79
2022/05/17 02:21:18;;;;;;;11.90;10.70;;;12.30;99.90;;;;;;5020045;28;20200;-79
2022/05/17 02:23:44;;;;;;;18.50;11.70;;;12.20;99.90;;;;;;5038189;28;20173;-78
2022/05/17 02:26:10;;;;;;;14.27;11.40;;;12.20;99.90;;;;;;5036956;28;20187;-78
2022/05/17 02:28:35;;;;;;;13.00;10.40;;;12.20;99.90;;;;;;5037377;28;20201;-78
2022/05/17 02:31:01;;;;;;;15.07;11.10;;;12.20;99.90;;;;;;5018794;28;20203;-79
2022/05/17 02:33:27;;;;;;;15.00;11.07;;;12.20;99.90;;;;;;5019655;28;20211;-78
2022/05/17 02:35:52;;;;;;;12.37;11.13;;;12.10;99.90;;;;;;5036295;28;20188;-79
2022/05/17 02:38:18;;;;;;;12.80;10.80;;;12.10;99.90;;;;;;5037841;28;20212;-80
2022/05/17 02:40:44;;;;;;;12.47;10.30;;;12.10;99.90;;;;;;5037005;28;20204;-78
2022/05/17 02:43:13;;;;;;;12.80;10.33;;;12.00;99.90;;;;;;5036411;28;20255;-78
2022/05/17 02:45:39;;;;;;;14.17;11.70;;;12.00;99.90;;;;;;5018376;28;20188;-78
2022/05/17 02:48:05;;;;;;;12.70;10.47;;;12.00;99.90;;;;;;5019015;28;20192;-79
2022/05/17 02:50:32;;;;;;;13.37;10.87;;;12.00;99.90;;;;;;5038034;28;20222;-78
2022/05/17 02:52:57;;;;;;;12.07;10.87;;;12.00;99.90;;;;;;5019229;28;20634;-79
2022/05/17 02:55:23;;;;;;;11.50;10.30;;;12.00;99.90;;;;;;5036449;28;20216;-79
2022/05/17 02:57:48;;;;;;;12.30;10.73;;;12.00;99.90;;;;;;5018963;28;20203;-78
2022/05/17 03:00:16;;;;;;;11.20;10.10;;;12.00;99.90;;;;;;5020090;28;20196;-78
2022/05/17 03:02:43;;;;;;;15.60;9.90;;;11.90;99.90;;;;;;5035581;28;20177;-78
2022/05/17 03:05:10;;;;;;;13.00;10.53;;;11.90;99.90;;;;;;5033641;28;20184;-78
2022/05/17 03:07:35;;;;;;;13.90;10.40;;;11.90;99.90;;;;;;5018313;28;20179;-78
2022/05/17 03:10:01;;;;;;;11.17;9.70;;;11.90;99.90;;;;;;5036095;28;20172;-78
2022/05/17 03:12:26;;;;;;;12.33;8.77;;;11.90;99.90;;;;;;5035921;28;20187;-78
2022/05/17 03:14:52;;;;;;;12.10;9.47;;;11.80;99.90;;;;;;5034684;28;20606;-78
2022/05/17 03:17:17;;;;;;;10.27;9.13;;;11.80;99.90;;;;;;5018247;28;20184;-78
2022/05/17 03:19:44;;;;;;;11.77;9.80;;;11.80;99.90;;;;;;5036104;28;20196;-77
2022/05/17 03:22:10;;;;;;;12.90;10.17;;;11.80;99.90;;;;;;5021163;28;20180;-78
2022/05/17 03:24:36;;;;;;;10.93;9.83;;;11.80;99.90;;;;;;5035952;28;20186;-78
2022/05/17 03:27:02;;;;;;;10.80;9.43;;;11.70;99.90;;;;;;5035320;28;20177;-78
2022/05/17 03:29:28;;;;;;;13.10;10.13;;;11.70;99.90;;;;;;5036062;28;20245;-78
2022/05/17 03:31:54;;;;;;;11.10;9.80;;;11.70;99.90;;;;;;5037225;28;20180;-78
2022/05/17 03:34:20;;;;;;;12.23;9.83;;;11.60;99.90;;;;;;5041346;28;20169;-78
2022/05/17 03:36:45;;;;;;;13.47;10.07;;;11.60;99.90;;;;;;5038612;28;20176;-78
2022/05/17 03:39:12;;;;;;;20.90;11.00;;;11.60;99.90;;;;;;5036403;28;20212;-78
2022/05/17 03:41:37;;;;;;;12.27;9.50;;;11.60;99.90;;;;;;5036078;28;20219;-78
2022/05/17 03:44:04;;;;;;;12.63;9.63;;;11.60;99.90;;;;;;5017265;28;20635;-78
2022/05/17 03:46:29;;;;;;;11.63;9.10;;;11.60;99.90;;;;;;5016472;28;20209;-78
2022/05/17 03:48:55;;;;;;;12.87;9.63;;;11.60;99.90;;;;;;5017286;28;20188;-78
2022/05/17 03:51:21;;;;;;;9.97;8.80;;;11.60;99.90;;;;;;5036313;28;20199;-78
2022/05/17 03:53:50;;;;;;;13.80;9.33;;;11.60;99.90;;;;;;5018108;28;20559;-78
2022/05/17 03:56:16;;;;;;;10.60;8.97;;;11.60;99.90;;;;;;5033847;28;20187;-78
2022/05/17 03:58:42;;;;;;;11.03;9.60;;;11.60;99.90;;;;;;5018353;28;20214;-78
2022/05/17 04:01:08;;;;;;;14.13;9.10;;;11.60;99.90;;;;;;5037251;28;20211;-78
2022/05/17 04:03:34;;;;;;;12.73;10.00;;;11.70;99.90;;;;;;5022201;28;20199;-78
2022/05/17 04:06:00;;;;;;;10.37;9.30;;;11.70;99.90;;;;;;5013371;28;20189;-78
2022/05/17 04:08:25;;;;;;;14.03;9.60;;;11.70;99.90;;;;;;5015906;28;20204;-78
2022/05/17 04:10:51;;;;;;;11.97;9.97;;;11.70;99.90;;;;;;5016460;28;20275;-78
2022/05/17 04:13:16;;;;;;;13.23;9.63;;;11.70;99.90;;;;;;5035794;28;20183;-79
2022/05/17 04:15:42;;;;;;;13.07;9.03;;;11.80;99.90;;;;;;5007475;28;20187;-79
2022/05/17 04:18:08;;;;;;;12.23;9.17;;;11.60;99.90;;;;;;5002650;28;20228;-79
2022/05/17 04:20:34;;;;;;;14.50;9.47;;;11.80;99.90;;;;;;5002073;28;20238;-78
2022/05/17 04:23:00;;;;;;;13.00;9.43;;;11.80;99.90;;;;;;5019315;28;20624;-78
2022/05/17 04:25:26;;;;;;;11.77;9.40;;;11.80;99.90;;;;;;5010837;28;20184;-78
2022/05/17 04:27:53;;;;;;;16.20;10.50;;;11.90;99.90;;;;;;5039313;28;20645;-77
2022/05/17 04:30:19;;;;;;;13.30;10.67;;;11.90;99.90;;;;;;5021132;28;20180;-79
2022/05/17 04:32:46;;;;;;;12.37;10.63;;;12.00;99.90;;;;;;5020323;28;20639;-78
2022/05/17 04:35:12;;;;;;;15.87;9.70;;;12.00;99.90;;;;;;5021980;28;20188;-78
2022/05/17 04:37:39;;;;;;;10.97;9.87;;;12.10;99.90;;;;;;5039006;28;20176;-78
2022/05/17 04:40:08;;;;;;;12.20;10.83;;;12.10;99.90;;;;;;5020778;28;20704;-78
2022/05/17 04:42:35;;;;;;;11.97;10.03;;;12.20;99.90;;;;;;5039178;28;20542;-78
2022/05/17 04:45:02;;;;;;;11.97;9.77;;;12.30;99.90;;;;;;5038623;28;20268;-77
2022/05/17 04:47:28;;;;;;;11.53;9.33;;;12.30;99.90;;;;;;5019437;28;20184;-78
2022/05/17 04:49:55;;;;;;;14.50;9.50;;;12.30;99.90;;;;;;5018869;28;20569;-78
2022/05/17 04:52:21;;;;;;;12.60;9.23;;;12.50;99.90;;;;;;5037923;28;20175;-77
2022/05/17 04:54:46;;;;;;;9.90;8.90;;;12.50;99.90;;;;;;5018917;28;20180;-77
2022/05/17 04:57:12;;;;;;;11.93;9.60;;;12.60;99.90;;;;;;5039171;28;20191;-78
2022/05/17 04:59:37;;;;;;;13.40;10.20;;;12.60;99.90;;;;;;5038105;28;20597;-78
2022/05/17 05:02:03;;;;;;;12.97;9.73;;;12.70;99.90;;;;;;5020461;28;20664;-78
2022/05/17 05:04:29;;;;;;;11.97;9.97;;;12.70;99.90;;;;;;5036522;28;20167;-78
2022/05/17 05:06:54;;;;;;;12.13;9.90;;;12.80;99.90;;;;;;5017952;28;20173;-77
2022/05/17 05:09:20;;;;;;;10.60;9.23;;;12.80;99.90;;;;;;5017594;28;20606;-78
2022/05/17 05:11:45;;;;;;;10.33;8.97;;;12.90;99.90;;;;;;5018095;28;20173;-77
2022/05/17 05:14:11;;;;;;;13.87;9.00;;;12.90;99.90;;;;;;5015779;28;20174;-78
2022/05/17 05:16:37;;;;;;;11.00;9.80;;;13.00;99.90;;;;;;5016338;28;20184;-77
2022/05/17 05:19:03;;;;;;;10.53;9.00;;;13.00;99.90;;;;;;5018842;28;20299;-78
2022/05/17 05:21:29;;;;;;;13.53;10.37;;;13.10;99.90;;;;;;5037913;28;20299;-78
2022/05/17 05:23:54;;;;;;;11.83;10.63;;;13.20;99.90;;;;;;5022287;28;20646;-77
2022/05/17 05:26:20;;;;;;;15.20;11.40;;;13.20;99.90;;;;;;5036838;28;20254;-78
2022/05/17 05:28:45;;;;;;;15.37;11.30;;;13.30;99.90;;;;;;5018772;28;20196;-77
2022/05/17 05:31:13;;;;;;;16.80;11.60;;;13.40;99.90;;;;;;5036530;28;20650;-77
2022/05/17 05:33:39;;;;;;;17.20;11.67;;;13.50;99.90;;;;;;5020039;28;20184;-77
2022/05/17 05:36:05;;;;;;;14.83;12.40;;;13.60;99.90;;;;;;5017883;28;20188;-77
2022/05/17 05:38:31;;;;;;;17.27;12.17;;;13.60;99.90;;;;;;5019000;28;20298;-77
2022/05/17 05:40:57;;;;;;;20.23;13.20;;;13.80;99.90;;;;;;5036582;28;20204;-77
2022/05/17 05:43:23;;;;;;;18.23;13.23;;;13.80;99.90;;;;;;5037224;28;20546;-77
2022/05/17 05:45:48;;;;;;;18.13;12.57;;;13.90;99.90;;;;;;5035642;28;20592;-77
2022/05/17 05:48:15;;;;;;;22.10;12.80;;;14.00;99.90;;;;;;5018121;28;20185;-78
2022/05/17 05:50:41;;;;;;;20.20;13.20;;;14.00;99.90;;;;;;5037421;28;20647;-78
2022/05/17 05:53:10;;;;;;;13.93;11.50;;;14.10;99.90;;;;;;5018970;28;20181;-77
2022/05/17 05:55:37;;;;;;;16.97;12.43;;;14.20;99.90;;;;;;5017741;28;20204;-78
2022/05/17 05:58:04;;;;;;;18.80;12.73;;;14.20;99.90;;;;;;5017805;28;20192;-77
2022/05/17 06:00:30;;;;;;;15.67;12.73;;;14.30;99.90;;;;;;5036967;28;20258;-78
2022/05/17 06:02:56;;;;;;;16.57;12.00;;;14.40;99.90;;;;;;5035979;28;20169;-77
2022/05/17 06:05:24;;;;;;;17.90;13.77;;;14.40;99.90;;;;;;5034142;28;20169;-78
2022/05/17 06:07:50;;;;;;;17.47;12.33;;;14.50;99.90;;;;;;5035325;28;20176;-77
2022/05/17 06:10:16;;;;;;;17.03;13.13;;;14.60;99.90;;;;;;5017780;28;20677;-77
2022/05/17 06:12:42;;;;;;;20.30;13.23;;;14.60;99.90;;;;;;5035711;28;20248;-77
2022/05/17 06:15:09;;;;;;;18.97;13.10;;;14.70;99.90;;;;;;5034512;28;20238;-77
2022/05/17 06:17:36;;;;;;;16.37;12.77;;;14.80;99.90;;;;;;5016737;28;20184;-77
2022/05/17 06:20:01;;;;;;;16.43;13.03;;;14.80;99.90;;;;;;5035684;28;20599;-77
2022/05/17 06:22:27;;;;;;;19.03;12.63;;;14.90;99.90;;;;;;5034128;28;20169;-77
2022/05/17 06:24:53;;;;;;;14.83;11.80;;;15.00;99.90;;;;;;5033554;28;20207;-77
2022/05/17 06:27:19;;;;;;;14.80;12.17;;;15.10;99.90;;;;;;5033778;28;20176;-77
2022/05/17 06:29:44;;;;;;;19.50;12.60;;;15.20;99.90;;;;;;5034338;28;20195;-77
2022/05/17 06:32:12;;;;;;;17.73;11.63;;;15.30;99.90;;;;;;5033666;28;20182;-77
2022/05/17 06:34:38;;;;;;;16.30;12.50;;;15.30;99.90;;;;;;5033213;28;20168;-77
2022/05/17 06:37:05;;;;;;;17.63;11.73;;;15.40;99.90;;;;;;5016480;28;20180;-77
2022/05/17 06:39:30;;;;;;;14.00;10.50;;;15.40;99.90;;;;;;5033965;28;20209;-77
2022/05/17 06:41:56;;;;;;;19.23;11.17;;;15.50;99.90;;;;;;5034104;28;20569;-77
2022/05/17 06:44:22;;;;;;;16.23;10.30;;;15.50;99.90;;;;;;5034120;28;20634;-77
2022/05/17 06:46:47;;;;;;;14.77;10.77;;;15.60;99.90;;;;;;5014938;28;20275;-77
2022/05/17 06:49:13;;;;;;;13.33;10.30;;;15.60;99.90;;;;;;5016172;28;20605;-77
2022/05/17 06:51:40;;;;;;;15.73;10.43;;;15.70;99.90;;;;;;5034612;28;20172;-77
2022/05/17 06:54:06;;;;;;;16.23;10.97;;;15.80;99.90;;;;;;5033727;28;20169;-77
2022/05/17 06:56:36;;;;;;;14.73;9.83;;;15.80;99.90;;;;;;5033129;28;20207;-77
2022/05/17 06:59:03;;;;;;;20.20;10.07;;;15.90;99.90;;;;;;5016631;28;20246;-77
2022/05/17 07:01:28;;;;;;;13.63;10.83;;;16.00;99.90;;;;;;5034134;28;20227;-77
2022/05/17 07:03:54;;;;;;;17.97;11.07;;;16.00;99.90;;;;;;5033623;28;20657;-77
2022/05/17 07:06:20;;;;;;;17.73;9.53;;;16.10;99.90;;;;;;5032295;28;20206;-77
2022/05/17 07:08:47;;;;;;;12.97;9.93;;;16.10;99.90;;;;;;5033700;28;20196;-77
2022/05/17 07:13:57;;;;;;;16.67;10.03;;;16.30;99.90;;;;;;5033176;28;20163;-77
2022/05/17 07:16:23;;;;;;;14.80;9.53;;;16.40;99.90;;;;;;5015134;28;20188;-77
2022/05/17 07:18:48;;;;;;;20.20;9.73;;;16.50;99.90;;;;;;5033435;28;20188;-77
2022/05/17 07:21:14;;;;;;;13.97;9.33;;;16.60;99.90;;;;;;5033954;28;20196;-77
2022/05/17 07:23:40;;;;;;;12.87;8.77;;;16.70;99.90;;;;;;5033951;28;20207;-77
2022/05/17 07:26:08;;;;;;;12.97;9.33;;;16.80;99.90;;;;;;5032558;28;20176;-77
2022/05/17 07:28:39;;;;;;;14.60;8.33;;;16.80;99.90;;;;;;5033932;28;20211;-77
2022/05/17 07:31:05;;;;;;;17.30;9.60;;;16.90;99.90;;;;;;5034734;28;20165;-78
2022/05/17 07:33:30;;;;;;;14.17;8.53;;;17.00;99.90;;;;;;5016271;28;20172;-76
2022/05/17 07:35:56;;;;;;;14.33;8.47;;;17.10;99.90;;;;;;5013994;28;20180;-76
2022/05/17 07:38:21;;;;;;;14.80;7.70;;;17.10;99.90;;;;;;5014612;28;20218;-76
2022/05/17 07:40:47;;;;;;;13.93;7.73;;;17.20;99.90;;;;;;5014857;28;20207;-77
2022/05/17 07:43:13;;;;;;;13.07;8.23;;;17.20;99.90;;;;;;5033230;28;20165;-78
2022/05/17 07:45:39;;;;;;;18.83;9.57;;;17.30;99.90;;;;;;5002526;28;20196;-76
2022/05/17 07:48:04;;;;;;;17.97;9.10;;;17.30;99.90;;;;;;5013029;28;20557;-76
2022/05/17 07:50:30;;;;;;;16.73;9.40;;;17.50;99.90;;;;;;5002571;28;20208;-74
2022/05/17 07:52:57;;;;;;;18.37;8.83;;;17.50;99.90;;;;;;5036887;28;20296;-77
2022/05/17 07:55:22;;;;;;;15.47;8.90;;;17.60;99.90;;;;;;5019473;28;20220;-78
2022/05/17 07:57:48;;;;;;;16.87;9.17;;;17.70;99.90;;;;;;5036229;28;20176;-77
2022/05/17 08:00:14;;;;;;;13.50;7.63;;;17.80;99.90;;;;;;5035369;28;20211;-77
2022/05/17 08:02:40;;;;;;;12.23;8.13;;;17.90;99.90;;;;;;5036266;28;20222;-77
2022/05/17 08:05:05;;;;;;;15.43;8.00;;;18.00;99.90;;;;;;5036124;28;20588;-77
2022/05/17 08:07:31;;;;;;;12.13;7.73;;;18.10;99.90;;;;;;5036234;28;20179;-77
2022/05/17 08:09:56;;;;;;;13.23;7.23;;;18.20;99.90;;;;;;5035722;28;20204;-78
2022/05/17 08:12:22;;;;;;;16.37;7.73;;;18.30;99.90;;;;;;5018345;28;20233;-77
2022/05/17 08:14:48;;;;;;;13.57;7.67;;;18.30;99.90;;;;;;5018423;28;20554;-76
2022/05/17 08:17:14;;;;;;;11.77;7.03;;;18.40;99.90;;;;;;5036313;28;20183;-77
2022/05/17 08:19:40;;;;;;;14.87;7.70;;;18.50;99.90;;;;;;5018180;28;20196;-76
2022/05/17 08:22:08;;;;;;;17.23;8.50;;;18.50;99.90;;;;;;5033213;28;20215;-77
2022/05/17 08:27:36;;;;;;;16.80;7.83;;;18.70;99.90;;;;;;5036541;28;20637;-77
2022/05/17 08:30:06;;;;;;;12.57;7.47;;;18.80;99.90;;;;;;5035360;28;20160;-77
2022/05/17 08:35:16;;;;;;;15.83;7.40;;;18.90;99.90;;;;;;5037180;28;20554;-78
2022/05/17 08:37:41;;;;;;;10.43;7.13;;;19.00;99.90;;;;;;5018911;28;20165;-78
2022/05/17 08:40:10;;;;;;;13.47;7.73;;;19.00;99.90;;;;;;5036122;28;20919;-78
2022/05/17 08:42:53;;;;;;;14.47;7.73;;;19.10;99.90;;;;;;5019560;28;20196;-78
2022/05/17 08:45:52;;;;;;;16.43;8.53;;;19.20;99.90;;;;;;5019838;28;20180;-79
2022/05/17 08:48:19;;;;;;;13.47;8.00;;;19.30;99.90;;;;;;5019793;28;20227;-79
2022/05/17 08:50:47;;;;;;;11.60;7.63;;;19.30;99.90;;;;;;5037138;28;20184;-78
2022/05/17 08:53:18;;;;;;;18.00;8.33;;;19.30;99.90;;;;;;5019512;28;20184;-78
2022/05/17 08:55:44;;;;;;;15.47;6.93;;;19.30;99.90;;;;;;5020354;28;20248;-77
2022/05/17 08:58:28;;;;;;;13.63;9.17;;;19.40;99.90;;;;;;5040246;28;20188;-78
2022/05/17 09:01:06;;;;;;;13.77;7.83;;;19.40;99.90;;;;;;5036742;28;20257;-78
2022/05/17 09:03:59;;;;;;;12.97;7.60;;;19.40;99.90;;;;;;5035845;28;20175;-78
2022/05/17 09:06:53;;;;;;;15.03;8.03;;;19.40;99.90;;;;;;5018193;28;20157;-78
2022/05/17 09:09:24;;;;;;;14.90;7.07;;;19.50;99.90;;;;;;5017994;28;20670;-78
2022/05/17 09:11:57;;;;;;;13.20;7.57;;;19.50;99.90;;;;;;5035317;28;20222;-78
2022/05/17 09:14:25;;;;;;;12.67;6.43;;;19.50;99.90;;;;;;5018397;28;20234;-78
2022/05/17 09:16:59;;;;;;;13.23;6.83;;;19.50;99.90;;;;;;5036916;28;20176;-78
2022/05/17 09:19:25;;;;;;;13.07;6.67;;;19.60;99.90;;;;;;5038569;28;20204;-78
2022/05/17 09:21:53;;;;;;;14.03;7.47;;;19.60;99.90;;;;;;5018639;28;20214;-78
2022/05/17 09:24:20;;;;;;;17.50;8.17;;;19.60;99.90;;;;;;5034687;28;20177;-80
2022/05/17 09:26:52;;;;;;;12.20;7.03;;;19.50;99.90;;;;;;5035911;28;20227;-78
2022/05/17 09:29:43;;;;;;;13.27;6.80;;;19.50;99.90;;;;;;5036893;28;20220;-79
2022/05/17 09:32:13;;;;;;;8.67;5.57;;;19.50;99.90;;;;;;5036438;28;20196;-79
2022/05/17 09:34:42;;;;;;;10.63;5.50;;;19.60;99.90;;;;;;5036763;28;20194;-79
2022/05/17 09:37:17;;;;;;;10.67;5.77;;;19.60;99.90;;;;;;5019395;28;20234;-79
2022/05/17 09:39:50;;;;;;;14.97;6.00;;;19.70;99.90;;;;;;5037097;28;20211;-79
2022/05/17 09:42:31;;;;;;;12.50;5.57;;;19.60;99.90;;;;;;5044324;22;20316;-76
2022/05/17 09:45:02;;;;;;;14.30;6.13;;;19.70;99.90;;;;;;5008941;28;20177;-74
2022/05/17 09:47:33;;;;;;;12.37;7.07;;;19.70;99.90;;;;;;5011146;28;20192;-74
2022/05/17 09:53:21;;;;;;;9.93;6.47;;;19.70;99.90;;;;;;5011723;28;20743;-74
2022/05/17 09:55:54;;;;;;;11.87;5.27;;;19.70;99.90;;;;;;4999076;28;20196;-74
2022/05/17 09:58:34;;;;;;;10.67;5.40;;;19.70;99.90;;;;;;5011552;28;20218;-74
2022/05/17 10:01:20;;;;;;;10.80;5.13;;;19.70;99.90;;;;;;5011545;28;20220;-74
2022/05/17 10:04:19;;;;;;;10.00;4.83;;;19.80;99.90;;;;;;5010106;28;20723;-74
2022/05/17 10:06:56;;;;;;;8.60;5.90;;;19.70;99.90;;;;;;4998829;28;20204;-73
2022/05/17 10:09:30;;;;;;;11.20;4.93;;;19.80;99.90;;;;;;5010038;28;20225;-74
2022/05/17 10:12:04;;;;;;;7.70;4.53;;;19.80;99.90;;;;;;5011185;28;20203;-74
2022/05/17 10:14:40;;;;;;;9.10;4.60;;;19.80;99.90;;;;;;5010856;28;20169;-74
2022/05/17 10:17:21;;;;;;;13.53;5.90;;;19.80;99.90;;;;;;5009461;28;20181;-74
2022/05/17 10:19:54;;;;;;;12.43;5.60;;;19.90;99.90;;;;;;5009943;28;20177;-74
2022/05/17 10:22:29;;;;;;;10.37;4.60;;;19.90;99.90;;;;;;5011185;28;20204;-74
2022/05/17 10:25:00;;;;;;;7.03;3.93;;;19.90;99.90;;;;;;5007450;28;20180;-74
2022/05/17 10:27:40;;;;;;;10.33;5.00;;;20.00;99.90;;;;;;5010712;28;20526;-74
2022/05/17 10:30:12;;;;;;;11.53;5.00;;;20.10;99.90;;;;;;5008027;28;20192;-74
2022/05/17 10:32:51;;;;;;;13.03;4.97;;;20.10;99.90;;;;;;5010842;28;20569;-74
2022/05/17 10:35:33;;;;;;;9.23;4.67;;;20.10;99.90;;;;;;5010694;28;20260;-74
2022/05/17 10:38:11;;;;;;;9.67;4.83;;;20.20;99.90;;;;;;5010892;28;20707;-74
2022/05/17 10:40:43;;;;;;;10.40;4.10;;;20.20;99.90;;;;;;5010980;28;20304;-74
2022/05/17 10:43:29;;;;;;;11.00;4.87;;;20.30;99.90;;;;;;5008911;28;20161;-75
2022/05/17 10:46:05;;;;;;;7.93;4.20;;;20.40;99.90;;;;;;5002806;28;20185;-74
2022/05/17 10:48:54;;;;;;;10.40;4.13;;;20.40;99.90;;;;;;5010806;28;20179;-74
2022/05/17 10:51:50;;;;;;;7.80;4.13;;;20.50;99.90;;;;;;5010774;28;20283;-74
2022/05/17 10:54:25;;;;;;;9.17;3.27;;;20.50;99.90;;;;;;5008557;28;20228;-74
2022/05/17 10:57:00;;;;;;;6.20;3.83;;;20.50;99.90;;;;;;5010731;28;20168;-74
2022/05/17 10:59:26;;;;;;;8.43;4.03;;;20.60;99.90;;;;;;5010688;28;20164;-74
2022/05/17 11:02:36;;;;;;;9.93;3.77;;;20.50;99.90;;;;;;5010605;28;20211;-74
2022/05/17 11:05:19;;;;;;;11.67;3.63;;;20.60;99.90;;;;;;5009682;28;20219;-74
2022/05/17 11:08:10;;;;;;;10.03;3.80;;;20.60;52.60;;;;;;5010536;28;20631;-73
2022/05/17 11:11:17;;;;;;;6.93;2.90;;;20.60;99.90;;;;;;5010699;28;20521;-74
2022/05/17 11:13:50;;;;;;;9.87;3.33;;;20.60;97.80;;;;;;4999342;28;20189;-74
2022/05/17 11:16:24;;;;;;;7.10;2.93;;;20.50;62.20;;;;;;5010330;28;20535;-74
2022/05/17 11:18:58;;;;;;;8.40;2.77;;;20.60;99.90;;;;;;5009020;28;20650;-74
2022/05/17 11:21:29;;;;;;;9.37;2.53;;;20.60;44.20;;;;;;5008988;28;20592;-74
2022/05/17 11:24:14;;;;;;;5.57;2.63;;;20.50;36.70;;;;;;5008667;28;20268;-75
2022/05/17 11:26:52;;;;;;;5.90;2.93;;;20.60;99.90;;;;;;5012523;28;20165;-74
2022/05/17 11:29:20;;;;;;;8.30;2.77;;;20.50;99.90;;;;;;5013804;28;20184;-75
2022/05/17 11:31:54;;;;;;;4.83;1.97;;;20.50;1.00;;;;;;5014251;28;20729;-74
2022/05/17 11:34:23;;;;;;;6.73;2.07;;;20.50;1.00;;;;;;5013283;28;20166;-74
2022/05/17 11:36:50;;;;;;;5.23;2.10;;;20.40;99.90;;;;;;5012364;28;20191;-73
2022/05/17 11:39:46;;;;;;;4.23;1.90;;;20.40;1.00;;;;;;5013465;28;20181;-73
2022/05/17 11:42:33;;;;;;;7.23;2.43;;;20.40;48.50;;;;;;5012033;28;20220;-76
2022/05/17 11:45:24;;;;;;;7.83;2.00;;;20.40;99.90;;;;;;5011480;28;20556;-75
2022/05/17 11:47:58;;;;;;;4.43;1.80;;;20.40;99.90;;;;;;5013455;28;20154;-75
2022/05/17 11:50:29;;;;;;;7.43;2.67;;;20.40;99.90;;;;;;5012073;28;20181;-75
2022/05/17 11:53:16;;;;;;;8.73;2.80;;;20.40;99.90;;;;;;5012171;28;20616;-75
2022/05/17 11:56:21;;;;;;;7.63;2.87;;;20.40;99.90;;;;;;5012877;28;20594;-75
2022/05/17 11:59:21;;;;;;;9.60;2.87;;;20.50;99.90;;;;;;5013644;28;20181;-75
2022/05/17 12:01:49;;;;;;;8.10;2.53;;;20.60;99.90;;;;;;5013486;28;20277;-75
2022/05/17 12:04:21;;;;;;;5.07;2.27;;;20.70;99.90;;;;;;5012485;28;20192;-75
2022/05/17 12:06:55;;;;;;;5.00;2.20;;;20.80;99.90;;;;;;5012256;28;20182;-75
2022/05/17 12:09:32;;;;;;;7.93;2.50;;;20.80;99.90;;;;;;5013400;28;20180;-74
2022/05/17 12:12:17;;;;;;;7.00;2.10;;;21.00;1.00;;;;;;5013348;28;20203;-74
2022/05/17 12:15:21;;;;;;;8.33;2.33;;;21.10;1.00;;;;;;5012549;28;20577;-74
2022/05/17 12:18:06;;;;;;;6.90;2.20;;;21.20;1.00;;;;;;5013623;28;20199;-74
2022/05/17 12:20:44;;;;;;;6.10;2.20;;;21.30;99.90;;;;;;5013392;28;20185;-74
2022/05/17 12:23:16;;;;;;;8.53;2.10;;;21.40;1.00;;;;;;5013166;28;20149;-74
2022/05/17 12:26:08;;;;;;;6.10;2.00;;;21.60;1.00;;;;;;5010526;28;20685;-74
2022/05/17 12:28:38;;;;;;;10.67;2.17;;;21.60;1.00;;;;;;5013175;28;20157;-74
2022/05/17 12:31:09;;;;;;;14.93;2.20;;;21.60;1.00;;;;;;5011692;28;20291;-74
2022/05/17 12:33:41;;;;;;;5.63;2.30;;;21.80;1.00;;;;;;5013125;28;20532;-74
2022/05/17 12:36:25;;;;;;;5.90;2.10;;;21.90;99.90;;;;;;5012185;28;20185;-74
2022/05/17 12:44:33;;;;;;;7.93;2.17;;;22.00;1.00;;;;;;5011850;28;20608;-75
2022/05/17 12:47:00;;;;;;;5.33;2.10;;;22.10;99.90;;;;;;5012076;28;20185;-75
2022/05/17 12:49:29;;;;;;;8.40;2.23;;;22.10;1.70;;;;;;5012939;28;20218;-75
2022/05/17 12:52:09;;;;;;;8.40;2.13;;;22.10;1.00;;;;;;5012424;28;20689;-75
2022/05/17 12:54:35;;;;;;;7.60;3.00;;;22.30;1.00;;;;;;5010816;28;20181;-74
2022/05/17 12:57:22;;;;;;;7.23;2.10;;;22.20;52.40;;;;;;5013107;28;20226;-74
2022/05/17 12:59:48;;;;;;;6.87;2.77;;;22.20;42.60;;;;;;5012640;28;20638;-74
2022/05/17 13:02:21;;;;;;;7.03;2.47;;;22.20;99.90;;;;;;5011065;28;20208;-75
2022/05/17 13:04:47;;;;;;;4.33;1.83;;;22.30;1.00;;;;;;5011769;28;20314;-74
2022/05/17 13:07:20;;;;;;;6.13;2.33;;;22.20;1.00;;;;;;5012731;28;20186;-74